createdAt,value
2023-02-23T00:00:21.034Z,17.70
2023-02-23T00:00:53.110Z,16.13
2023-02-23T00:01:28.742Z,17.42
2023-02-23T00:02:06.579Z,16.40
2023-02-23T00:02:38.904Z,16.50
2023-02-23T00:03:10.929Z,16.58
2023-02-23T00:03:44.187Z,17.77
2023-02-23T00:04:18.674Z,16.95
2023-02-23T00:04:50.577Z,15.82
2023-02-23T00:05:24.207Z,15.73
2023-02-23T00:05:56.021Z,16.77
2023-02-23T00:06:30.973Z,15.98
2023-02-23T00:07:03.095Z,17.55
2023-02-23T00:07:36.646Z,16.33
2023-02-23T00:08:10.937Z,15.60
2023-02-23T00:08:43.203Z,20.70
2023-02-23T00:09:23.235Z,16.65
2023-02-23T00:09:56.874Z,19.65
2023-02-23T00:10:30.460Z,17.50
2023-02-23T00:11:02.828Z,16.17
2023-02-23T00:11:35.963Z,16.85
2023-02-23T00:12:08.328Z,19.48
2023-02-23T00:12:41.382Z,16.48
2023-02-23T00:13:14.183Z,18.67
2023-02-23T00:13:49.926Z,18.45
2023-02-23T00:14:27.090Z,17.23
2023-02-23T00:14:59.898Z,16.35
2023-02-23T00:15:31.688Z,16.90
2023-02-23T00:16:07.790Z,16.40
2023-02-23T00:16:45.193Z,18.17
2023-02-23T00:17:17.485Z,18.10
2023-02-23T00:17:49.295Z,18.08
2023-02-23T00:18:22.819Z,16.38
2023-02-23T00:19:00.216Z,18.35
2023-02-23T00:19:33.527Z,16.85
2023-02-23T00:20:11.319Z,18.30
2023-02-23T00:20:47.871Z,17.48
2023-02-23T00:21:21.393Z,18.52
2023-02-23T00:21:58.639Z,17.25
2023-02-23T00:22:30.466Z,16.17
2023-02-23T00:23:04.870Z,16.35
2023-02-23T00:23:38.619Z,19.55
2023-02-23T00:24:13.904Z,16.75
2023-02-23T00:24:47.661Z,23.63
2023-02-23T00:25:20.546Z,17.63
2023-02-23T00:25:52.348Z,17.02
2023-02-23T00:26:28.154Z,16.88
2023-02-23T00:27:06.089Z,18.00
2023-02-23T00:27:38.933Z,15.50
2023-02-23T00:28:10.847Z,18.27
2023-02-23T00:28:44.647Z,20.42
2023-02-23T00:29:18.343Z,16.00
2023-02-23T00:29:50.859Z,15.45
2023-02-23T00:30:23.740Z,17.42
2023-02-23T00:30:55.773Z,18.00
2023-02-23T00:31:28.584Z,19.05
2023-02-23T00:32:01.434Z,18.58
2023-02-23T00:32:35.094Z,18.88
2023-02-23T00:33:07.336Z,22.58
2023-02-23T00:33:40.990Z,20.90
2023-02-23T00:34:14.339Z,16.90
2023-02-23T00:34:48.956Z,17.20
2023-02-23T00:35:21.938Z,17.73
2023-02-23T00:35:55.407Z,19.25
2023-02-23T00:36:28.980Z,17.20
2023-02-23T00:37:01.714Z,18.70
2023-02-23T00:37:33.487Z,22.38
2023-02-23T00:38:06.648Z,21.50
2023-02-23T00:38:40.014Z,16.83
2023-02-23T00:39:19.971Z,19.27
2023-02-23T00:39:56.416Z,17.75
2023-02-23T00:40:29.227Z,18.88
2023-02-23T00:41:03.638Z,16.80
2023-02-23T00:41:36.432Z,17.33
2023-02-23T00:42:08.256Z,17.65
2023-02-23T00:42:40.382Z,18.58
2023-02-23T00:43:15.092Z,17.67
2023-02-23T00:43:47.397Z,19.15
2023-02-23T00:44:21.170Z,19.35
2023-02-23T00:44:53.014Z,17.70
2023-02-23T00:45:26.191Z,17.02
2023-02-23T00:45:58.021Z,20.58
2023-02-23T00:46:30.626Z,17.30
2023-02-23T00:47:03.638Z,18.30
2023-02-23T00:47:36.227Z,21.52
2023-02-23T00:48:10.623Z,17.48
2023-02-23T00:48:43.395Z,18.98
2023-02-23T00:49:16.474Z,21.25
2023-02-23T00:49:48.256Z,18.13
2023-02-23T00:50:21.113Z,21.02
2023-02-23T00:50:59.231Z,20.00
2023-02-23T00:51:31.136Z,17.40
2023-02-23T00:52:05.416Z,16.52
2023-02-23T00:52:37.233Z,18.58
2023-02-23T00:53:11.558Z,18.33
2023-02-23T00:53:45.284Z,19.73
2023-02-23T00:54:18.117Z,21.35
2023-02-23T00:54:49.950Z,16.85
2023-02-23T00:55:22.702Z,17.50
2023-02-23T00:55:54.963Z,20.88
2023-02-23T00:56:27.827Z,21.80
2023-02-23T00:57:00.587Z,20.00
2023-02-23T00:57:33.093Z,18.65
2023-02-23T00:58:09.513Z,20.58
2023-02-23T00:58:41.973Z,21.02
2023-02-23T00:59:14.546Z,18.20
2023-02-23T00:59:47.335Z,23.02
2023-02-23T01:00:20.629Z,17.35
2023-02-23T01:00:53.143Z,18.60
2023-02-23T01:01:27.199Z,19.38
2023-02-23T01:01:59.044Z,18.90
2023-02-23T01:02:31.026Z,19.30
2023-02-23T01:03:03.821Z,18.60
2023-02-23T01:03:36.795Z,18.55
2023-02-23T01:04:09.418Z,17.60
2023-02-23T01:04:42.290Z,17.25
2023-02-23T01:05:14.890Z,16.95
2023-02-23T01:05:49.993Z,18.90
2023-02-23T01:06:23.469Z,19.80
2023-02-23T01:06:55.278Z,16.77
2023-02-23T01:07:27.128Z,17.85
2023-02-23T01:07:59.843Z,18.80
2023-02-23T01:08:34.060Z,19.27
2023-02-23T01:09:09.017Z,19.60
2023-02-23T01:09:42.101Z,21.75
2023-02-23T01:10:19.643Z,16.88
2023-02-23T01:10:53.186Z,18.15
2023-02-23T01:11:28.731Z,18.73
2023-02-23T01:12:01.530Z,18.35
2023-02-23T01:12:33.408Z,18.35
2023-02-23T01:13:06.866Z,17.35
2023-02-23T01:13:40.705Z,20.70
2023-02-23T01:14:12.587Z,19.85
2023-02-23T01:14:46.325Z,21.02
2023-02-23T01:15:19.589Z,17.92
2023-02-23T01:15:52.158Z,19.70
2023-02-23T01:16:28.385Z,16.52
2023-02-23T01:17:00.430Z,19.10
2023-02-23T01:17:32.463Z,17.65
2023-02-23T01:18:05.342Z,21.08
2023-02-23T01:18:38.724Z,18.58
2023-02-23T01:19:10.817Z,18.45
2023-02-23T01:19:43.632Z,17.95
2023-02-23T01:20:18.834Z,17.35
2023-02-23T01:20:50.898Z,19.02
2023-02-23T01:21:25.025Z,21.38
2023-02-23T01:21:57.838Z,22.55
2023-02-23T01:22:31.827Z,19.42
2023-02-23T01:23:04.218Z,19.13
2023-02-23T01:23:38.330Z,20.55
2023-02-23T01:24:11.828Z,18.55
2023-02-23T01:24:43.635Z,19.85
2023-02-23T01:25:17.362Z,18.27
2023-02-23T01:25:49.356Z,22.90
2023-02-23T01:26:23.572Z,16.90
2023-02-23T01:26:56.367Z,19.63
2023-02-23T01:27:29.169Z,18.13
2023-02-23T01:28:01.367Z,19.58
2023-02-23T01:28:34.142Z,18.20
2023-02-23T01:29:09.354Z,21.27
2023-02-23T01:29:41.149Z,20.15
2023-02-23T01:30:15.955Z,18.85
2023-02-23T01:30:47.837Z,18.85
2023-02-23T01:31:21.167Z,20.75
2023-02-23T01:31:54.383Z,18.50
2023-02-23T01:32:26.290Z,19.00
2023-02-23T01:32:58.144Z,19.30
2023-02-23T01:33:31.120Z,19.17
2023-02-23T01:34:05.840Z,20.73
2023-02-23T01:34:37.642Z,22.23
2023-02-23T01:35:11.315Z,20.17
2023-02-23T01:35:44.522Z,21.33
2023-02-23T01:36:16.480Z,19.83
2023-02-23T01:36:48.578Z,20.67
2023-02-23T01:37:20.543Z,18.73
2023-02-23T01:37:53.399Z,20.52
2023-02-23T01:38:25.220Z,17.75
2023-02-23T01:38:59.961Z,18.88
2023-02-23T01:39:33.971Z,24.23
2023-02-23T01:40:09.654Z,19.48
2023-02-23T01:40:43.298Z,20.85
2023-02-23T01:41:16.735Z,20.70
2023-02-23T01:41:51.572Z,18.20
2023-02-23T01:42:23.691Z,18.98
2023-02-23T01:42:59.193Z,19.40
2023-02-23T01:43:31.033Z,20.33
2023-02-23T01:44:05.440Z,18.70
2023-02-23T01:45:24.276Z,18.95
2023-02-23T01:45:57.945Z,20.08
2023-02-23T01:46:33.061Z,21.40
2023-02-23T01:47:05.293Z,19.50
2023-02-23T01:47:37.171Z,18.60
2023-02-23T01:48:14.952Z,19.25
2023-02-23T01:48:48.340Z,21.67
2023-02-23T01:49:25.473Z,19.10
2023-02-23T01:49:58.449Z,18.55
2023-02-23T01:50:37.267Z,19.45
2023-02-23T01:51:13.208Z,19.08
2023-02-23T01:51:50.430Z,21.63
2023-02-23T01:52:22.254Z,19.33
2023-02-23T01:52:55.448Z,18.08
2023-02-23T01:53:31.035Z,19.63
2023-02-23T01:54:09.599Z,18.80
2023-02-23T01:54:44.223Z,19.23
2023-02-23T01:55:23.472Z,20.63
2023-02-23T01:55:59.086Z,20.33
2023-02-23T01:56:35.551Z,19.80
2023-02-23T01:57:12.260Z,19.90
2023-02-23T01:57:44.136Z,20.52
2023-02-23T01:58:20.763Z,25.30
2023-02-23T01:58:55.968Z,19.73
2023-02-23T01:59:33.996Z,19.63
2023-02-23T02:00:07.859Z,21.42
2023-02-23T02:00:41.866Z,19.73
2023-02-23T02:01:14.317Z,19.95
2023-02-23T02:01:48.126Z,20.73
2023-02-23T02:02:24.247Z,18.95
2023-02-23T02:02:58.109Z,18.75
2023-02-23T02:03:37.118Z,18.15
2023-02-23T02:04:16.270Z,19.48
2023-02-23T02:04:51.898Z,21.52
2023-02-23T02:05:25.282Z,23.38
2023-02-23T02:05:59.673Z,21.30
2023-02-23T02:06:32.469Z,19.48
2023-02-23T02:07:04.982Z,23.48
2023-02-23T02:07:39.514Z,21.23
2023-02-23T02:08:12.153Z,20.08
2023-02-23T02:08:47.416Z,18.85
2023-02-23T02:09:25.562Z,26.20
2023-02-23T02:10:13.962Z,19.85
2023-02-23T02:10:46.502Z,20.10
2023-02-23T02:11:30.675Z,18.15
2023-02-23T02:12:02.540Z,17.70
2023-02-23T02:12:34.531Z,19.95
2023-02-23T02:13:08.292Z,20.05
2023-02-23T02:13:41.187Z,20.08
2023-02-23T02:14:16.640Z,23.23
2023-02-23T02:14:48.776Z,19.27
2023-02-23T02:15:25.870Z,20.70
2023-02-23T02:16:18.327Z,23.92
2023-02-23T02:17:06.276Z,18.42
2023-02-23T02:17:47.066Z,21.15
2023-02-23T02:18:27.388Z,21.23
2023-02-23T02:19:28.687Z,25.40
2023-02-23T02:20:43.817Z,22.63
2023-02-23T02:21:46.874Z,20.38
2023-02-23T02:23:04.132Z,19.27
2023-02-23T02:24:10.207Z,21.00
2023-02-23T02:25:13.055Z,21.02
2023-02-23T02:25:57.717Z,18.15
2023-02-23T02:26:41.559Z,21.92
2023-02-23T02:27:22.825Z,25.63
2023-02-23T02:28:24.825Z,20.90
2023-02-23T02:29:20.592Z,18.83
2023-02-23T02:30:22.794Z,19.65
2023-02-23T02:31:36.225Z,19.80
2023-02-23T02:32:37.520Z,22.33
2023-02-23T02:33:53.148Z,24.30
2023-02-23T02:35:03.422Z,19.52
2023-02-23T02:35:56.067Z,22.45
2023-02-23T02:37:07.044Z,18.25
2023-02-23T02:37:50.466Z,21.35
2023-02-23T02:38:32.164Z,22.77
2023-02-23T02:39:10.665Z,21.42
2023-02-23T02:39:55.258Z,21.00
2023-02-23T02:40:32.355Z,22.52
2023-02-23T02:41:12.043Z,24.20
2023-02-23T02:41:51.118Z,21.70
2023-02-23T02:42:31.774Z,24.63
2023-02-23T02:43:11.423Z,22.40
2023-02-23T02:43:50.865Z,27.65
2023-02-23T02:44:28.923Z,21.20
2023-02-23T02:45:09.336Z,18.80
2023-02-23T02:45:48.787Z,24.20
2023-02-23T02:46:25.035Z,20.77
2023-02-23T02:47:05.905Z,20.67
2023-02-23T02:47:44.890Z,22.30
2023-02-23T02:48:25.680Z,21.17
2023-02-23T02:49:06.230Z,21.17
2023-02-23T02:49:45.257Z,22.80
2023-02-23T02:50:24.618Z,19.50
2023-02-23T02:51:03.966Z,28.35
2023-02-23T02:51:43.694Z,21.40
2023-02-23T02:52:20.659Z,22.83
2023-02-23T02:52:58.987Z,24.48
2023-02-23T02:53:40.852Z,22.67
2023-02-23T02:54:22.562Z,22.50
2023-02-23T02:54:59.629Z,22.30
2023-02-23T02:55:34.668Z,21.25
2023-02-23T02:56:08.325Z,23.52
2023-02-23T02:56:43.549Z,20.83
2023-02-23T02:57:18.311Z,19.48
2023-02-23T02:57:53.003Z,24.35
2023-02-23T02:58:25.563Z,22.52
2023-02-23T02:58:57.511Z,20.58
2023-02-23T02:59:47.980Z,21.27
2023-02-23T03:00:41.818Z,21.13
2023-02-23T03:01:34.910Z,22.38
2023-02-23T03:02:28.248Z,18.90
2023-02-23T03:03:18.525Z,22.00
2023-02-23T03:04:09.659Z,20.88
2023-02-23T03:05:00.171Z,24.35
2023-02-23T03:05:57.189Z,21.38
2023-02-23T03:06:52.297Z,21.70
2023-02-23T03:07:49.603Z,22.65
2023-02-23T03:08:49.855Z,21.95
2023-02-23T03:09:52.891Z,23.40
2023-02-23T03:10:52.949Z,24.63
2023-02-23T03:11:46.980Z,18.35
2023-02-23T03:12:45.564Z,28.52
2023-02-23T03:13:42.992Z,24.23
2023-02-23T03:14:44.810Z,20.45
2023-02-23T03:15:54.825Z,20.95
2023-02-23T03:16:56.424Z,22.45
2023-02-23T03:17:53.917Z,19.67
2023-02-23T03:18:59.637Z,24.27
2023-02-23T03:19:55.151Z,20.23
2023-02-23T03:20:51.686Z,23.33
2023-02-23T03:21:47.127Z,23.83
2023-02-23T03:22:42.665Z,20.08
2023-02-23T03:23:38.589Z,19.85
2023-02-23T03:24:38.492Z,22.42
2023-02-23T03:25:32.888Z,21.10
2023-02-23T03:26:28.150Z,21.95
2023-02-23T03:27:23.145Z,25.27
2023-02-23T03:28:20.576Z,21.38
2023-02-23T03:29:18.261Z,20.38
2023-02-23T03:30:14.270Z,18.50
2023-02-23T03:31:09.516Z,23.05
2023-02-23T03:32:05.878Z,24.08
2023-02-23T03:33:05.513Z,23.17
2023-02-23T03:34:02.749Z,23.02
2023-02-23T03:34:58.504Z,26.45
2023-02-23T03:35:53.699Z,22.48
2023-02-23T03:36:47.277Z,23.05
2023-02-23T03:37:43.845Z,21.52
2023-02-23T03:38:38.837Z,23.15
2023-02-23T03:39:38.097Z,23.23
2023-02-23T03:40:32.018Z,23.55
2023-02-23T03:41:26.057Z,28.88
2023-02-23T03:42:19.484Z,24.90
2023-02-23T03:43:12.903Z,22.20
2023-02-23T03:44:07.003Z,21.25
2023-02-23T03:45:00.604Z,22.17
2023-02-23T03:45:51.688Z,23.63
2023-02-23T03:46:44.667Z,23.35
2023-02-23T03:47:37.045Z,22.60
2023-02-23T03:48:31.012Z,24.88
2023-02-23T03:49:23.413Z,26.48
2023-02-23T03:50:16.031Z,24.48
2023-02-23T03:51:11.440Z,25.13
2023-02-23T03:52:06.428Z,19.98
2023-02-23T03:53:03.619Z,25.45
2023-02-23T03:54:00.524Z,24.15
2023-02-23T03:54:56.538Z,21.13
2023-02-23T03:55:51.910Z,23.63
2023-02-23T03:56:45.345Z,21.77
2023-02-23T03:57:39.106Z,28.40
2023-02-23T03:58:35.440Z,21.15
2023-02-23T03:59:28.309Z,20.55
2023-02-23T04:00:20.817Z,26.00
2023-02-23T04:01:15.322Z,23.50
2023-02-23T04:02:08.660Z,23.73
2023-02-23T04:03:01.537Z,20.80
2023-02-23T04:03:55.772Z,21.65
2023-02-23T04:04:47.740Z,22.55
2023-02-23T04:05:40.141Z,22.35
2023-02-23T04:06:32.561Z,22.75
2023-02-23T04:07:25.645Z,23.27
2023-02-23T04:08:19.784Z,24.77
2023-02-23T04:09:11.348Z,24.75
2023-02-23T04:10:03.763Z,23.20
2023-02-23T04:10:58.679Z,20.50
2023-02-23T04:11:56.658Z,26.65
2023-02-23T04:12:55.554Z,22.30
2023-02-23T04:13:29.984Z,20.17
2023-02-23T04:14:07.198Z,29.95
2023-02-23T04:14:45.479Z,25.88
2023-02-23T04:15:25.047Z,27.98
2023-02-23T04:16:00.237Z,28.02
2023-02-23T04:16:33.448Z,24.65
2023-02-23T04:17:07.108Z,22.90
2023-02-23T04:17:40.482Z,25.58
2023-02-23T04:18:15.107Z,27.92
2023-02-23T04:18:47.884Z,22.95
2023-02-23T04:19:19.705Z,23.23
2023-02-23T04:19:52.472Z,25.08
2023-02-23T04:20:25.716Z,22.63
2023-02-23T04:20:59.281Z,27.45
2023-02-23T04:21:31.544Z,22.48
2023-02-23T04:22:04.328Z,27.85
2023-02-23T04:22:36.186Z,28.00
2023-02-23T04:23:08.055Z,24.50
2023-02-23T04:23:41.879Z,21.50
2023-02-23T04:24:13.790Z,22.38
2023-02-23T04:24:47.039Z,21.63
2023-02-23T04:25:22.800Z,23.17
2023-02-23T04:25:56.309Z,25.13
2023-02-23T04:26:28.146Z,21.88
2023-02-23T04:27:01.434Z,24.90
2023-02-23T04:27:33.233Z,28.88
2023-02-23T04:28:06.358Z,21.63
2023-02-23T04:28:38.292Z,22.27
2023-02-23T04:29:11.356Z,22.05
2023-02-23T04:29:44.980Z,23.17
2023-02-23T04:30:17.343Z,22.73
2023-02-23T04:30:49.244Z,20.63
2023-02-23T04:31:25.122Z,22.55
2023-02-23T04:31:57.385Z,23.73
2023-02-23T04:32:29.932Z,22.10
2023-02-23T04:33:02.894Z,22.95
2023-02-23T04:33:34.715Z,22.58
2023-02-23T04:34:06.482Z,22.77
2023-02-23T04:34:39.277Z,25.05
2023-02-23T04:35:13.135Z,21.98
2023-02-23T04:35:45.987Z,20.10
2023-02-23T04:36:18.747Z,21.92
2023-02-23T04:36:51.259Z,21.23
2023-02-23T04:37:23.218Z,20.80
2023-02-23T04:37:55.603Z,23.85
2023-02-23T04:38:28.465Z,21.88
2023-02-23T04:39:00.470Z,22.42
2023-02-23T04:39:32.276Z,20.63
2023-02-23T04:40:06.984Z,23.38
2023-02-23T04:40:39.818Z,20.58
2023-02-23T04:41:11.705Z,22.30
2023-02-23T04:41:43.536Z,21.15
2023-02-23T04:42:15.725Z,23.25
2023-02-23T04:42:48.577Z,23.95
2023-02-23T04:43:20.562Z,23.60
2023-02-23T04:43:52.369Z,21.80
2023-02-23T04:44:24.169Z,23.33
2023-02-23T04:44:56.961Z,24.02
2023-02-23T04:45:29.231Z,24.90
2023-02-23T04:46:01.332Z,23.48
2023-02-23T04:46:34.077Z,24.30
2023-02-23T04:47:05.997Z,23.70
2023-02-23T04:47:38.007Z,21.80
2023-02-23T04:48:10.853Z,21.75
2023-02-23T04:48:42.701Z,22.83
2023-02-23T04:49:14.498Z,21.02
2023-02-23T04:49:46.734Z,22.33
2023-02-23T04:50:19.906Z,22.33
2023-02-23T04:50:52.926Z,21.80
2023-02-23T04:51:30.041Z,20.88
2023-02-23T04:52:02.938Z,21.23
2023-02-23T04:52:34.985Z,20.80
2023-02-23T04:53:06.834Z,21.15
2023-02-23T04:53:40.526Z,20.75
2023-02-23T04:54:12.372Z,23.98
2023-02-23T04:54:44.925Z,23.35
2023-02-23T04:55:21.495Z,27.25
2023-02-23T04:55:53.335Z,26.33
2023-02-23T04:56:25.207Z,20.20
2023-02-23T04:56:57.019Z,21.48
2023-02-23T04:57:29.932Z,24.67
2023-02-23T04:58:02.716Z,26.25
2023-02-23T04:58:34.530Z,20.92
2023-02-23T04:59:07.328Z,21.27
2023-02-23T04:59:39.139Z,24.40
2023-02-23T05:00:12.437Z,21.08
2023-02-23T05:00:45.194Z,24.10
2023-02-23T05:01:17.617Z,25.08
2023-02-23T05:01:49.853Z,26.85
2023-02-23T05:02:22.709Z,28.13
2023-02-23T05:02:54.564Z,20.60
2023-02-23T05:03:26.360Z,24.70
2023-02-23T05:03:58.423Z,24.13
2023-02-23T05:04:31.449Z,22.55
2023-02-23T05:05:03.461Z,24.13
2023-02-23T05:05:35.408Z,24.15
2023-02-23T05:06:08.316Z,23.70
2023-02-23T05:06:40.185Z,27.20
2023-02-23T05:07:12.010Z,94.07
2023-02-23T05:07:44.775Z,86.72
2023-02-23T05:08:16.575Z,69.25
2023-02-23T05:08:48.387Z,50.20
2023-02-23T05:09:21.471Z,33.65
2023-02-23T05:09:53.267Z,35.42
2023-02-23T05:10:26.447Z,24.17
2023-02-23T05:10:59.233Z,23.02
2023-02-23T05:11:31.102Z,23.25
2023-02-23T05:12:03.027Z,26.08
2023-02-23T05:12:35.882Z,21.85
2023-02-23T05:13:07.944Z,19.45
2023-02-23T05:13:39.773Z,19.42
2023-02-23T05:14:12.606Z,20.02
2023-02-23T05:14:44.428Z,19.80
2023-02-23T05:15:16.487Z,19.13
2023-02-23T05:15:49.298Z,19.23
2023-02-23T05:16:21.194Z,19.77
2023-02-23T05:16:53.163Z,20.38
2023-02-23T05:17:26.002Z,20.70
2023-02-23T05:17:57.812Z,18.85
2023-02-23T05:18:29.627Z,23.00
2023-02-23T05:19:02.478Z,21.73
2023-02-23T05:19:34.457Z,20.65
2023-02-23T05:20:07.112Z,21.65
2023-02-23T05:20:42.916Z,20.10
2023-02-23T05:21:14.710Z,22.27
2023-02-23T05:21:46.543Z,22.40
2023-02-23T05:22:19.297Z,21.42
2023-02-23T05:22:51.101Z,20.67
2023-02-23T05:23:22.925Z,19.15
2023-02-23T05:23:57.075Z,18.98
2023-02-23T05:24:28.959Z,19.02
2023-02-23T05:25:01.623Z,19.15
2023-02-23T05:25:35.726Z,16.45
2023-02-23T05:26:10.232Z,18.88
2023-02-23T05:26:42.103Z,21.42
2023-02-23T05:27:15.404Z,20.65
2023-02-23T05:27:47.215Z,20.08
2023-02-23T05:28:19.178Z,19.63
2023-02-23T05:28:52.037Z,20.85
2023-02-23T05:29:23.987Z,18.27
2023-02-23T05:29:55.818Z,19.60
2023-02-23T05:30:28.616Z,21.90
2023-02-23T05:31:00.597Z,21.40
2023-02-23T05:31:32.606Z,19.33
2023-02-23T05:32:05.935Z,20.05
2023-02-23T05:32:37.920Z,18.73
2023-02-23T05:33:10.761Z,18.80
2023-02-23T05:33:42.963Z,20.42
2023-02-23T05:34:16.731Z,18.48
2023-02-23T05:34:49.505Z,20.90
2023-02-23T05:35:21.644Z,19.15
2023-02-23T05:35:53.464Z,23.17
2023-02-23T05:36:26.305Z,20.88
2023-02-23T05:36:58.112Z,17.92
2023-02-23T05:37:29.938Z,19.55
2023-02-23T05:38:02.704Z,22.67
2023-02-23T05:38:34.684Z,28.88
2023-02-23T05:39:06.486Z,21.70
2023-02-23T05:39:39.256Z,20.30
2023-02-23T05:40:12.237Z,26.27
2023-02-23T05:40:45.368Z,20.65
2023-02-23T05:41:20.964Z,18.90
2023-02-23T05:41:52.898Z,20.60
2023-02-23T05:42:24.704Z,21.27
2023-02-23T05:43:00.318Z,18.02
2023-02-23T05:43:32.293Z,17.85
2023-02-23T05:44:04.273Z,17.92
2023-02-23T05:44:37.337Z,22.00
2023-02-23T05:45:09.338Z,18.77
2023-02-23T05:45:41.576Z,18.65
2023-02-23T05:46:18.229Z,17.83
2023-02-23T05:46:50.048Z,20.70
2023-02-23T05:47:21.899Z,20.83
2023-02-23T05:47:54.701Z,18.10
2023-02-23T05:48:26.582Z,19.10
2023-02-23T05:49:00.656Z,18.13
2023-02-23T05:49:33.443Z,29.90
2023-02-23T05:50:06.535Z,30.60
2023-02-23T05:50:38.707Z,27.58
2023-02-23T05:51:12.842Z,24.73
2023-02-23T05:51:45.607Z,22.08
2023-02-23T05:52:17.565Z,20.02
2023-02-23T05:52:49.408Z,18.85
2023-02-23T05:53:22.208Z,19.92
2023-02-23T05:53:54.258Z,17.48
2023-02-23T05:54:26.381Z,18.38
2023-02-23T05:54:59.232Z,19.20
2023-02-23T05:55:31.321Z,23.92
2023-02-23T05:56:06.069Z,29.23
2023-02-23T05:56:38.925Z,29.42
2023-02-23T05:57:10.746Z,26.83
2023-02-23T05:57:43.731Z,21.02
2023-02-23T05:58:16.419Z,35.72
2023-02-23T05:58:48.697Z,30.90
2023-02-23T05:59:21.475Z,29.90
2023-02-23T05:59:53.716Z,25.23
2023-02-23T06:00:25.690Z,23.20
2023-02-23T06:00:58.654Z,22.55
2023-02-23T06:01:31.031Z,23.02
2023-02-23T06:02:04.675Z,21.17
2023-02-23T06:02:37.573Z,20.77
2023-02-23T06:03:09.447Z,19.75
2023-02-23T06:03:41.617Z,19.42
2023-02-23T06:04:14.506Z,18.33
2023-02-23T06:04:46.964Z,19.92
2023-02-23T06:05:19.823Z,21.77
2023-02-23T06:05:52.980Z,19.02
2023-02-23T06:06:25.602Z,22.20
2023-02-23T06:06:58.963Z,22.73
2023-02-23T06:07:30.963Z,18.83
2023-02-23T06:08:02.821Z,20.15
2023-02-23T06:08:35.785Z,17.58
2023-02-23T06:09:07.684Z,21.17
2023-02-23T06:09:39.505Z,19.55
2023-02-23T06:10:13.179Z,18.25
2023-02-23T06:10:45.211Z,20.38
2023-02-23T06:11:18.738Z,18.77
2023-02-23T06:11:51.727Z,18.67
2023-02-23T06:12:23.780Z,16.83
2023-02-23T06:12:55.580Z,17.15
2023-02-23T06:13:29.436Z,19.30
2023-02-23T06:14:01.336Z,19.73
2023-02-23T06:14:33.330Z,21.17
2023-02-23T06:15:07.309Z,25.10
2023-02-23T06:15:39.415Z,23.70
2023-02-23T06:16:11.398Z,31.33
2023-02-23T06:16:45.152Z,39.95
2023-02-23T06:17:17.172Z,36.88
2023-02-23T06:17:49.097Z,28.45
2023-02-23T06:18:22.132Z,31.40
2023-02-23T06:18:54.082Z,26.42
2023-02-23T06:19:27.025Z,24.42
2023-02-23T06:19:59.648Z,20.75
2023-02-23T06:20:31.524Z,22.05
2023-02-23T06:21:04.909Z,21.90
2023-02-23T06:21:36.973Z,20.45
2023-02-23T06:22:09.448Z,19.33
2023-02-23T06:22:42.800Z,22.58
2023-02-23T06:23:15.554Z,17.55
2023-02-23T06:23:47.371Z,19.13
2023-02-23T06:24:20.282Z,17.70
2023-02-23T06:24:52.094Z,20.45
2023-02-23T06:25:23.956Z,17.58
2023-02-23T06:25:56.980Z,18.48
2023-02-23T06:26:30.173Z,16.50
2023-02-23T06:27:03.065Z,19.10
2023-02-23T06:27:35.922Z,17.95
2023-02-23T06:28:08.773Z,20.85
2023-02-23T06:28:41.540Z,18.75
2023-02-23T06:29:14.541Z,22.27
2023-02-23T06:29:47.311Z,17.98
2023-02-23T06:30:19.203Z,19.35
2023-02-23T06:30:52.563Z,20.90
2023-02-23T06:31:25.410Z,18.13
2023-02-23T06:31:59.730Z,19.95
2023-02-23T06:32:32.663Z,23.00
2023-02-23T06:33:06.301Z,23.92
2023-02-23T06:33:38.095Z,19.90
2023-02-23T06:34:11.403Z,21.80
2023-02-23T06:34:44.712Z,19.58
2023-02-23T06:35:16.707Z,22.23
2023-02-23T06:35:49.521Z,25.85
2023-02-23T06:36:21.745Z,23.98
2023-02-23T06:36:53.544Z,18.65
2023-02-23T06:37:26.731Z,20.10
2023-02-23T06:37:59.023Z,18.95
2023-02-23T06:38:31.841Z,23.27
2023-02-23T06:39:04.159Z,17.77
2023-02-23T06:39:35.970Z,18.20
2023-02-23T06:40:10.167Z,19.00
2023-02-23T06:40:43.042Z,18.70
2023-02-23T06:41:14.826Z,19.13
2023-02-23T06:41:48.931Z,18.52
2023-02-23T06:42:20.773Z,20.33
2023-02-23T06:42:52.850Z,21.33
2023-02-23T06:43:25.731Z,18.83
2023-02-23T06:43:57.573Z,20.30
2023-02-23T06:44:29.466Z,17.90
2023-02-23T06:45:02.320Z,19.40
2023-02-23T06:45:34.124Z,19.75
2023-02-23T06:46:06.159Z,18.48
2023-02-23T06:46:38.980Z,20.58
2023-02-23T06:47:11.228Z,21.58
2023-02-23T06:47:43.030Z,19.65
2023-02-23T06:48:15.866Z,21.45
2023-02-23T06:48:47.772Z,16.30
2023-02-23T06:49:19.624Z,19.38
2023-02-23T06:49:52.435Z,20.25
2023-02-23T06:50:24.356Z,18.95
2023-02-23T06:50:59.575Z,20.23
2023-02-23T06:51:31.482Z,21.65
2023-02-23T06:52:03.361Z,18.58
2023-02-23T06:52:36.300Z,19.58
2023-02-23T06:53:08.371Z,24.15
2023-02-23T06:53:41.204Z,19.85
2023-02-23T06:54:13.065Z,19.73
2023-02-23T06:54:44.916Z,22.98
2023-02-23T06:55:17.941Z,21.65
2023-02-23T06:55:49.776Z,22.55
2023-02-23T06:56:21.691Z,22.35
2023-02-23T06:56:56.588Z,23.10
2023-02-23T06:57:28.424Z,22.85
2023-02-23T06:58:00.282Z,17.75
2023-02-23T06:58:33.171Z,20.83
2023-02-23T06:59:05.078Z,26.55
2023-02-23T06:59:37.230Z,21.25
2023-02-23T07:00:14.938Z,22.48
2023-02-23T07:00:46.778Z,19.50
2023-02-23T07:01:19.926Z,18.80
2023-02-23T07:01:52.126Z,19.48
2023-02-23T07:02:24.061Z,18.10
2023-02-23T07:02:58.062Z,17.92
2023-02-23T07:03:29.894Z,19.05
2023-02-23T07:04:02.728Z,22.90
2023-02-23T07:04:34.586Z,23.30
2023-02-23T07:05:06.864Z,18.95
2023-02-23T07:05:39.612Z,20.30
2023-02-23T07:06:11.412Z,21.88
2023-02-23T07:06:43.294Z,17.02
2023-02-23T07:07:16.094Z,20.05
2023-02-23T07:07:47.917Z,21.33
2023-02-23T07:08:19.746Z,19.80
2023-02-23T07:08:52.544Z,19.08
2023-02-23T07:09:24.717Z,17.17
2023-02-23T07:09:56.514Z,16.70
2023-02-23T07:10:29.327Z,19.35
2023-02-23T07:11:07.100Z,18.67
2023-02-23T07:11:41.554Z,16.90
2023-02-23T07:12:14.730Z,18.25
2023-02-23T07:12:47.781Z,19.63
2023-02-23T07:13:21.856Z,21.42
2023-02-23T07:13:53.660Z,24.70
2023-02-23T07:14:27.342Z,18.80
2023-02-23T07:14:59.296Z,19.48
2023-02-23T07:15:31.135Z,20.23
2023-02-23T07:16:04.050Z,17.13
2023-02-23T07:16:36.813Z,18.38
2023-02-23T07:17:10.020Z,15.52
2023-02-23T07:17:45.153Z,17.77
2023-02-23T07:18:17.267Z,25.33
2023-02-23T07:18:50.083Z,21.15
2023-02-23T07:19:23.268Z,16.73
2023-02-23T07:19:55.346Z,17.73
2023-02-23T07:20:28.272Z,20.65
2023-02-23T07:21:00.119Z,19.25
2023-02-23T07:21:33.168Z,22.02
2023-02-23T07:22:05.967Z,18.45
2023-02-23T07:22:39.828Z,15.85
2023-02-23T07:23:12.825Z,24.25
2023-02-23T07:23:44.661Z,20.33
2023-02-23T07:24:16.502Z,24.42
2023-02-23T07:24:49.290Z,19.98
2023-02-23T07:25:21.455Z,19.17
2023-02-23T07:25:53.960Z,20.48
2023-02-23T07:26:27.065Z,19.20
2023-02-23T07:26:59.222Z,27.27
2023-02-23T07:27:33.352Z,19.40
2023-02-23T07:28:05.301Z,24.58
2023-02-23T07:28:38.195Z,16.60
2023-02-23T07:29:12.175Z,19.00
2023-02-23T07:29:44.020Z,19.52
2023-02-23T07:30:18.112Z,17.95
2023-02-23T07:30:50.002Z,19.73
2023-02-23T07:31:22.211Z,17.98
2023-02-23T07:31:55.703Z,20.42
2023-02-23T07:32:27.609Z,21.27
2023-02-23T07:33:00.448Z,23.70
2023-02-23T07:33:32.563Z,23.58
2023-02-23T07:34:04.439Z,22.23
2023-02-23T07:34:37.853Z,16.63
2023-02-23T07:35:10.328Z,20.95
2023-02-23T07:35:45.100Z,17.10
2023-02-23T07:36:16.923Z,16.17
2023-02-23T07:36:48.762Z,18.10
2023-02-23T07:37:21.576Z,19.95
2023-02-23T07:37:55.672Z,17.38
2023-02-23T07:38:28.567Z,17.73
2023-02-23T07:39:00.405Z,18.08
2023-02-23T07:39:32.244Z,16.83
2023-02-23T07:40:05.487Z,19.33
2023-02-23T07:40:37.311Z,20.92
2023-02-23T07:41:09.117Z,17.67
2023-02-23T07:41:41.922Z,19.92
2023-02-23T07:42:13.865Z,19.02
2023-02-23T07:42:47.984Z,17.60
2023-02-23T07:43:21.007Z,18.40
2023-02-23T07:43:53.832Z,18.67
2023-02-23T07:44:25.627Z,21.55
2023-02-23T07:44:58.388Z,17.23
2023-02-23T07:45:30.227Z,17.85
2023-02-23T07:46:02.555Z,20.35
2023-02-23T07:46:35.374Z,19.45
2023-02-23T07:47:07.252Z,18.00
2023-02-23T07:47:39.361Z,18.83
2023-02-23T07:48:12.131Z,21.35
2023-02-23T07:48:45.016Z,17.20
2023-02-23T07:49:16.810Z,16.13
2023-02-23T07:49:49.624Z,21.35